Time;durP1;ratioP1;P1;durP2;ratioP2;P2;SDS_P1;SDS_P2;PMS_P1;PMS_P2;Temp;Humidity;BMP_temperature;BMP_pressure;BME280_temperature;BME280_humidity;BME280_pressure;Samples;Min_cycle;Max_cycle;Signal;HPM_P1;HPM_P2
2023/08/26 00:00:12;;;;;;;51.83;44.63;;;;;;;21.80;70.02;100248.25;679882;29;1579;-78
2023/08/26 00:00:33;;;;;;;49.17;43.85;;;;;;;21.87;69.89;100255.13;679496;29;1427;-77
2023/08/26 00:00:53;;;;;;;49.75;44.05;;;;;;;21.80;69.85;100252.69;682662;28;1276;-78
2023/08/26 00:01:14;;;;;;;50.73;44.00;;;;;;;21.73;69.96;100247.53;683381;28;1906;-78
2023/08/26 00:01:35;;;;;;;50.83;43.35;;;;;;;21.83;70.16;100260.56;684087;28;1165;-78
2023/08/26 00:01:55;;;;;;;50.97;43.60;;;;;;;21.74;70.10;100253.72;685132;28;1226;-78
2023/08/26 00:02:16;;;;;;;48.03;42.73;;;;;;;21.82;70.24;100257.03;682360;29;1709;-78
2023/08/26 00:02:37;;;;;;;49.58;43.58;;;;;;;21.86;70.02;100264.00;685151;28;1095;-78
2023/08/26 00:02:58;;;;;;;49.20;43.67;;;;;;;21.90;70.19;100273.63;682570;29;1103;-78
2023/08/26 00:03:19;;;;;;;50.22;44.40;;;;;;;21.77;70.18;100251.00;684781;28;1725;-78
2023/08/26 00:03:39;;;;;;;53.57;44.17;;;;;;;21.76;70.22;100252.75;687740;28;1100;-77
2023/08/26 00:04:00;;;;;;;52.55;43.55;;;;;;;21.79;70.00;100259.78;684613;28;1259;-78
2023/08/26 00:04:21;;;;;;;52.05;43.58;;;;;;;21.80;70.00;100258.84;685054;28;1077;-78
2023/08/26 00:04:42;;;;;;;49.08;43.88;;;;;;;21.89;70.10;100269.22;682234;28;1577;-78
2023/08/26 00:05:03;;;;;;;50.80;44.88;;;;;;;21.79;70.22;100257.13;677166;29;1208;-78
2023/08/26 00:05:23;;;;;;;51.00;44.90;;;;;;;21.72;69.84;100244.91;685056;28;1032;-78
2023/08/26 00:05:44;;;;;;;56.35;45.78;;;;;;;21.77;70.14;100254.50;685602;28;1433;-78
2023/08/26 00:06:05;;;;;;;55.40;45.77;;;;;;;21.86;70.05;100268.44;687762;28;1040;-78
2023/08/26 00:06:26;;;;;;;63.25;46.97;;;;;;;21.76;70.08;100251.91;685058;28;1087;-78
2023/08/26 00:06:47;;;;;;;59.55;47.00;;;;;;;21.72;70.15;100250.22;688092;28;1281;-78
2023/08/26 00:07:19;;;;;;;60.22;46.95;;;;;;;21.74;70.19;100254.59;682467;28;1269;-78
2023/08/26 00:07:40;;;;;;;52.00;46.22;;;;;;;21.75;70.25;100252.78;686004;28;1000;-77
2023/08/26 00:08:01;;;;;;;51.38;45.83;;;;;;;21.69;70.11;100245.00;679566;28;1298;-78
2023/08/26 00:08:21;;;;;;;54.15;46.03;;;;;;;21.68;70.14;100238.81;679691;29;1043;-78
2023/08/26 00:08:42;;;;;;;58.20;46.80;;;;;;;21.70;70.29;100247.59;684461;28;1279;-78
2023/08/26 00:09:02;;;;;;;53.83;45.13;;;;;;;21.66;70.20;100245.06;682066;28;1788;-78
2023/08/26 00:09:23;;;;;;;51.05;44.30;;;;;;;21.67;70.30;100257.44;684801;28;1589;-78
2023/08/26 00:09:44;;;;;;;49.30;44.00;;;;;;;21.53;70.58;100239.22;680010;29;1248;-78
2023/08/26 00:10:05;;;;;;;52.08;45.95;;;;;;;21.58;70.83;100264.72;681001;29;1532;-78
2023/08/26 00:10:26;;;;;;;56.78;47.30;;;;;;;21.53;71.13;100261.34;679789;29;1021;-78
2023/08/26 00:10:47;;;;;;;63.35;47.50;;;;;;;21.44;71.00;100242.94;684414;28;1537;-78
2023/08/26 00:11:07;;;;;;;61.88;47.40;;;;;;;21.56;71.04;100249.75;685046;28;1417;-79
2023/08/26 00:11:28;;;;;;;60.00;46.80;;;;;;;21.42;70.89;100237.69;687605;28;1212;-78
2023/08/26 00:11:49;;;;;;;59.80;45.95;;;;;;;21.45;71.14;100242.91;689160;28;1141;-79
2023/08/26 00:12:10;;;;;;;61.05;46.78;;;;;;;21.41;71.14;100245.69;682058;28;1466;-78
2023/08/26 00:12:30;;;;;;;58.38;47.08;;;;;;;21.50;70.98;100249.03;681934;29;1706;-78
2023/08/26 00:12:51;;;;;;;57.43;46.47;;;;;;;21.54;71.01;100240.97;679882;29;1376;-78
2023/08/26 00:13:12;;;;;;;56.13;45.30;;;;;;;21.51;70.78;100231.28;682106;29;1805;-78
2023/08/26 00:13:32;;;;;;;53.93;44.30;;;;;;;21.64;70.90;100258.41;679662;29;1505;-78
2023/08/26 00:13:53;;;;;;;55.05;45.53;;;;;;;21.60;70.63;100243.47;682263;29;1205;-78
2023/08/26 00:14:14;;;;;;;53.83;46.40;;;;;;;21.54;70.76;100233.88;681555;29;1251;-78
2023/08/26 00:14:34;;;;;;;53.80;46.28;;;;;;;21.52;70.70;100240.16;682474;28;1034;-78
2023/08/26 00:14:55;;;;;;;53.17;45.47;;;;;;;21.61;70.76;100250.50;685078;28;1016;-78
2023/08/26 00:15:15;;;;;;;50.13;44.13;;;;;;;21.48;70.78;100239.31;686409;28;1302;-78
2023/08/26 00:15:36;;;;;;;50.63;44.38;;;;;;;21.52;70.95;100240.16;684273;28;1748;-78
2023/08/26 00:15:57;;;;;;;49.70;44.50;;;;;;;21.47;70.92;100235.78;680938;28;1654;-78
2023/08/26 00:16:17;;;;;;;49.67;44.25;;;;;;;21.54;70.73;100246.28;680414;28;1082;-78
2023/08/26 00:16:38;;;;;;;52.00;44.05;;;;;;;21.60;70.80;100252.31;682989;28;1437;-77
2023/08/26 00:16:59;;;;;;;51.60;42.90;;;;;;;21.58;70.61;100246.16;677511;29;1090;-78
2023/08/26 00:17:19;;;;;;;52.10;42.50;;;;;;;21.63;70.74;100257.53;677177;29;1137;-78
2023/08/26 00:17:40;;;;;;;50.63;41.90;;;;;;;21.63;70.50;100257.53;679202;28;1512;-78
2023/08/26 00:18:00;;;;;;;49.90;41.80;;;;;;;21.58;70.74;100245.31;681826;29;1295;-78
2023/08/26 00:18:21;;;;;;;49.17;43.50;;;;;;;21.62;70.47;100249.59;679736;29;1029;-78
2023/08/26 00:18:42;;;;;;;50.00;44.60;;;;;;;21.74;70.75;100261.69;681093;29;1041;-78
2023/08/26 00:19:03;;;;;;;54.63;46.55;;;;;;;21.62;70.38;100239.88;685070;28;1477;-78
2023/08/26 00:19:24;;;;;;;53.10;46.42;;;;;;;21.61;70.36;100243.44;686800;28;1307;-78
2023/08/26 00:19:45;;;;;;;54.28;46.58;;;;;;;21.71;70.28;100262.63;684567;28;1331;-78
2023/08/26 00:20:08;;;;;;;53.47;45.47;;;;;;;21.61;70.38;100240.78;683193;28;1841;-78
2023/08/26 00:20:35;;;;;;;55.40;45.03;;;;;;;21.64;70.62;100253.97;679595;29;1243;-79
2023/08/26 00:20:57;;;;;;;50.88;44.20;;;;;;;21.57;70.81;100252.38;679377;29;1415;-78
2023/08/26 00:21:21;;;;;;;48.92;43.67;;;;;;;21.43;70.90;100243.88;684998;28;1911;-78
2023/08/26 00:21:43;;;;;;;48.45;43.35;;;;;;;21.46;71.04;100249.13;686899;28;1114;-78
2023/08/26 00:22:05;;;;;;;50.28;45.08;;;;;;;21.52;70.77;100256.06;685403;28;1648;-78
2023/08/26 00:22:25;;;;;;;51.13;45.50;;;;;;;21.54;70.87;100256.91;684794;28;1426;-79
2023/08/26 00:22:46;;;;;;;52.25;46.58;;;;;;;21.42;70.63;100237.69;680026;28;1253;-78
2023/08/26 00:23:08;;;;;;;50.47;44.97;;;;;;;21.47;70.62;100250.84;682007;29;1446;-78
2023/08/26 00:23:31;;;;;;;51.90;46.13;;;;;;;21.60;70.32;100275.31;687516;28;1295;-78
2023/08/26 00:23:51;;;;;;;56.38;46.75;;;;;;;21.56;70.57;100261.25;684914;28;1873;-78
2023/08/26 00:24:12;;;;;;;56.72;48.13;;;;;;;21.50;70.42;100258.75;684809;28;1322;-78
2023/08/26 00:24:33;;;;;;;52.97;47.17;;;;;;;21.51;70.64;100260.50;682154;28;1221;-78
2023/08/26 00:24:54;;;;;;;54.05;47.33;;;;;;;21.43;70.66;100233.25;676872;29;1445;-78
2023/08/26 00:25:15;;;;;;;54.50;46.77;;;;;;;21.52;70.67;100262.25;677077;29;1023;-77
2023/08/26 00:25:52;;;;;;;55.22;46.72;;;;;;;21.40;70.70;100250.16;681456;28;1193;-78
2023/08/26 00:26:13;;;;;;;52.45;46.70;;;;;;;21.37;70.77;100243.13;684289;28;1092;-78
2023/08/26 00:26:35;;;;;;;53.60;47.25;;;;;;;21.47;70.66;100254.34;684718;28;1498;-78
2023/08/26 00:26:58;;;;;;;54.08;47.20;;;;;;;21.45;70.85;100256.19;687796;28;895;-78
2023/08/26 00:27:18;;;;;;;53.67;46.67;;;;;;;21.56;70.58;100268.34;682467;28;1368;-78
2023/08/26 00:27:40;;;;;;;51.67;45.88;;;;;;;21.49;70.66;100259.66;683509;28;1362;-79
2023/08/26 00:28:00;;;;;;;52.70;45.88;;;;;;;21.46;70.67;100251.75;682295;29;987;-78
2023/08/26 00:28:21;;;;;;;54.83;46.30;;;;;;;21.56;70.48;100271.88;682326;29;1064;-77
2023/08/26 00:28:42;;;;;;;52.60;46.72;;;;;;;21.56;70.77;100277.19;676303;29;1364;-79
2023/08/26 00:29:03;;;;;;;51.38;45.92;;;;;;;21.45;70.78;100258.00;685033;28;1313;-79
2023/08/26 00:29:24;;;;;;;50.70;45.20;;;;;;;21.53;71.00;100277.28;681848;29;1702;-80
2023/08/26 00:29:45;;;;;;;50.05;44.55;;;;;;;21.54;70.89;100273.69;682321;29;1200;-79
2023/08/26 00:30:06;;;;;;;56.00;46.25;;;;;;;21.41;70.68;100256.31;679618;28;1164;-80
2023/08/26 00:30:27;;;;;;;56.75;47.83;;;;;;;21.43;70.64;100251.81;682106;29;1428;-78
2023/08/26 00:31:00;;;;;;;59.25;48.35;;;;;;;21.54;70.67;100276.38;679259;29;1361;-79
2023/08/26 00:31:22;;;;;;;56.25;45.60;;;;;;;21.43;70.78;100254.47;682166;29;1192;-78
2023/08/26 00:31:43;;;;;;;55.00;45.78;;;;;;;21.53;70.55;100271.97;682396;28;1056;-77
2023/08/26 00:32:04;;;;;;;49.88;44.22;;;;;;;21.44;70.66;100261.53;680408;29;1773;-78
2023/08/26 00:32:25;;;;;;;48.97;43.75;;;;;;;21.42;70.55;100252.75;681836;29;998;-78
2023/08/26 00:32:47;;;;;;;49.55;43.47;;;;;;;21.55;70.56;100272.78;686205;28;1111;-77
2023/08/26 00:33:08;;;;;;;49.38;43.90;;;;;;;21.50;70.43;100266.72;683967;28;1644;-77
2023/08/26 00:33:29;;;;;;;50.28;44.60;;;;;;;21.44;70.63;100258.88;679431;28;932;-78
2023/08/26 00:33:49;;;;;;;49.50;44.05;;;;;;;21.56;70.43;100277.19;682093;29;1180;-77
2023/08/26 00:34:10;;;;;;;50.33;44.83;;;;;;;21.54;70.52;100273.69;687803;28;1919;-78
2023/08/26 00:34:31;;;;;;;51.17;45.43;;;;;;;21.49;70.29;100265.88;685919;28;2615;-78
2023/08/26 00:34:52;;;;;;;51.63;46.05;;;;;;;21.41;70.45;100251.88;684748;28;2637;-78
2023/08/26 00:35:13;;;;;;;51.67;46.17;;;;;;;21.36;70.52;100249.34;682765;28;1440;-77
2023/08/26 00:35:37;;;;;;;52.15;46.58;;;;;;;21.47;70.29;100269.44;681332;29;2251;-78
2023/08/26 00:35:58;;;;;;;52.47;46.80;;;;;;;21.32;70.54;100236.16;678474;29;1478;-78
2023/08/26 00:36:19;;;;;;;49.93;44.60;;;;;;;21.40;70.65;100254.56;681849;28;1129;-78
2023/08/26 00:36:40;;;;;;;50.58;45.20;;;;;;;21.32;70.66;100250.31;685046;28;1257;-78
2023/08/26 00:37:01;;;;;;;49.97;44.67;;;;;;;21.27;70.53;100251.34;682062;28;1495;-78
2023/08/26 00:37:22;;;;;;;51.20;45.50;;;;;;;21.35;70.80;100257.34;680191;29;1082;-78
2023/08/26 00:37:43;;;;;;;51.72;43.60;;;;;;;21.30;70.66;100248.63;686533;28;1139;-78
2023/08/26 00:38:03;;;;;;;52.95;43.60;;;;;;;21.27;70.67;100244.25;684853;28;1025;-77
2023/08/26 00:38:24;;;;;;;50.67;43.10;;;;;;;21.29;70.93;100255.72;682703;28;1382;-78
2023/08/26 00:38:44;;;;;;;53.25;44.42;;;;;;;21.25;70.96;100262.00;682049;28;1269;-78
2023/08/26 00:39:05;;;;;;;50.88;42.67;;;;;;;21.20;71.05;100258.56;684776;28;1365;-77
2023/08/26 00:39:26;;;;;;;49.30;41.27;;;;;;;21.12;71.08;100234.03;684274;28;1506;-77
2023/08/26 00:39:46;;;;;;;46.35;41.05;;;;;;;21.20;70.93;100251.50;685416;28;1255;-78
2023/08/26 00:40:08;;;;;;;45.38;40.47;;;;;;;21.28;71.06;100267.25;684963;28;1115;-78
2023/08/26 00:40:34;;;;;;;43.92;39.28;;;;;;;21.24;70.94;100265.56;684898;28;1129;-78
2023/08/26 00:40:55;;;;;;;45.47;36.70;;;;;;;21.22;71.14;100262.09;689886;28;1396;-78
2023/08/26 00:41:16;;;;;;;48.05;37.28;;;;;;;21.09;71.11;100241.16;686589;28;1985;-78
2023/08/26 00:41:37;;;;;;;48.43;38.20;;;;;;;21.09;70.90;100241.16;687510;28;1191;-78
2023/08/26 00:41:57;;;;;;;42.55;38.13;;;;;;;21.13;70.91;100244.59;684986;28;997;-78
2023/08/26 00:42:18;;;;;;;41.03;36.72;;;;;;;21.12;71.08;100249.94;683847;28;1177;-78
2023/08/26 00:42:39;;;;;;;41.20;36.80;;;;;;;21.15;70.85;100264.00;682334;28;1045;-79
2023/08/26 00:43:07;;;;;;;42.55;36.65;;;;;;;21.23;70.66;100266.47;681863;28;1744;-78
2023/08/26 00:43:28;;;;;;;43.75;37.10;;;;;;;21.12;70.72;100244.63;687572;28;1049;-77
2023/08/26 00:43:49;;;;;;;45.70;37.10;;;;;;;21.13;70.49;100246.41;687113;28;1147;-77
2023/08/26 00:44:10;;;;;;;44.53;37.42;;;;;;;21.21;70.37;100273.63;685795;28;1047;-77
2023/08/26 00:44:31;;;;;;;43.08;37.22;;;;;;;21.22;70.30;100270.06;684459;28;1112;-78
2023/08/26 00:44:51;;;;;;;42.90;37.10;;;;;;;21.22;70.16;100264.75;682132;28;1179;-78
2023/08/26 00:45:13;;;;;;;43.28;37.60;;;;;;;21.22;70.22;100267.41;687765;28;1136;-79
2023/08/26 00:45:36;;;;;;;43.05;37.55;;;;;;;21.26;70.43;100270.84;683529;28;1436;-78
2023/08/26 00:45:59;;;;;;;39.20;34.70;;;;;;;21.09;70.03;100242.94;687326;28;1303;-78
2023/08/26 00:46:21;;;;;;;35.85;32.00;;;;;;;21.10;70.07;100250.84;684990;28;1185;-78
2023/08/26 00:46:42;;;;;;;42.70;31.10;;;;;;;21.17;70.03;100254.25;683880;28;1037;-78
2023/08/26 00:47:04;;;;;;;41.50;31.42;;;;;;;21.07;69.90;100242.97;684786;28;1112;-78
2023/08/26 00:47:25;;;;;;;35.03;31.02;;;;;;;21.24;69.64;100265.56;679637;28;1169;-78
2023/08/26 00:47:46;;;;;;;37.88;31.55;;;;;;;21.25;69.60;100266.47;684495;28;1104;-77
2023/08/26 00:48:08;;;;;;;38.03;31.70;;;;;;;21.24;69.51;100265.56;684817;28;1202;-78
2023/08/26 00:48:29;;;;;;;35.80;31.90;;;;;;;21.12;69.23;100249.94;682033;29;1421;-77
2023/08/26 00:48:53;;;;;;;34.95;31.25;;;;;;;21.27;69.31;100278.75;687423;28;1494;-78
2023/08/26 00:49:14;;;;;;;35.00;31.20;;;;;;;21.18;69.06;100268.38;682359;28;1158;-78
2023/08/26 00:49:35;;;;;;;36.40;31.58;;;;;;;21.23;68.96;100271.78;682069;28;1841;-78
2023/08/26 00:49:56;;;;;;;36.40;31.15;;;;;;;21.16;68.90;100268.44;682214;29;1061;-78
2023/08/26 00:50:17;;;;;;;36.20;30.60;;;;;;;21.19;68.96;100280.72;674871;29;1429;-78
2023/08/26 00:50:39;;;;;;;35.20;30.47;;;;;;;21.10;68.75;100258.81;677108;29;1381;-78
2023/08/26 00:50:59;;;;;;;35.72;31.25;;;;;;;21.16;68.56;100260.47;680469;28;1134;-78
2023/08/26 00:51:23;;;;;;;39.13;32.20;;;;;;;21.07;68.62;100250.94;684856;28;1248;-77
2023/08/26 00:51:44;;;;;;;37.78;31.10;;;;;;;21.11;68.55;100259.69;687851;28;1083;-78
2023/08/26 00:52:06;;;;;;;35.15;30.15;;;;;;;21.14;68.44;100266.72;687543;28;1598;-79
2023/08/26 00:52:27;;;;;;;34.10;30.27;;;;;;;21.18;68.60;100271.03;684869;28;1126;-78
2023/08/26 00:52:48;;;;;;;34.35;30.55;;;;;;;21.21;68.31;100265.66;681414;29;1831;-78
2023/08/26 00:53:13;;;;;;;36.25;30.90;;;;;;;21.17;68.50;100269.28;679691;28;1158;-78
2023/08/26 00:53:34;;;;;;;35.70;30.85;;;;;;;21.00;68.40;100236.06;679329;28;1175;-77
2023/08/26 00:53:56;;;;;;;35.33;31.40;;;;;;;21.09;68.24;100250.91;679621;29;1258;-79
2023/08/26 00:54:17;;;;;;;36.13;30.80;;;;;;;21.09;68.40;100248.25;682307;29;1029;-78
2023/08/26 00:54:38;;;;;;;38.38;30.42;;;;;;;21.08;68.21;100249.13;682275;28;1250;-78
2023/08/26 00:54:58;;;;;;;37.22;29.75;;;;;;;21.10;68.61;100252.66;686472;28;1406;-79
2023/08/26 00:55:20;;;;;;;35.75;30.10;;;;;;;21.12;68.49;100263.19;684945;28;1209;-78
2023/08/26 00:55:41;;;;;;;34.60;30.05;;;;;;;21.18;68.33;100268.38;676294;29;1254;-78
2023/08/26 00:56:03;;;;;;;34.70;29.40;;;;;;;21.08;68.50;100259.75;676602;29;1609;-78
2023/08/26 00:56:24;;;;;;;35.42;29.60;;;;;;;21.09;68.50;100257.06;682269;29;1075;-79
2023/08/26 00:56:45;;;;;;;33.95;29.30;;;;;;;21.05;68.43;100252.75;682147;28;1123;-79
2023/08/26 00:57:08;;;;;;;32.40;29.00;;;;;;;21.14;68.26;100269.38;683156;28;1780;-79
2023/08/26 00:57:29;;;;;;;32.05;28.75;;;;;;;21.06;68.28;100259.81;679212;29;1392;-78
2023/08/26 00:57:51;;;;;;;31.60;28.30;;;;;;;21.17;68.17;100280.78;682102;28;1271;-79
2023/08/26 00:58:12;;;;;;;31.75;28.45;;;;;;;21.14;68.24;100264.91;681922;29;1395;-77
2023/08/26 00:58:35;;;;;;;32.22;28.80;;;;;;;21.16;68.13;100262.22;679923;28;1439;-78
2023/08/26 00:58:56;;;;;;;34.75;30.35;;;;;;;21.05;68.23;100255.41;680509;29;1243;-78
2023/08/26 00:59:17;;;;;;;38.08;30.50;;;;;;;21.13;68.24;100273.78;680985;29;1151;-78
2023/08/26 00:59:37;;;;;;;37.67;29.98;;;;;;;21.10;68.24;100268.56;687436;28;1294;-78
2023/08/26 00:59:58;;;;;;;34.97;29.00;;;;;;;21.09;68.44;100261.53;687546;28;1163;-78
2023/08/26 01:00:19;;;;;;;31.47;28.10;;;;;;;21.06;68.29;100265.13;680322;28;1407;-79
2023/08/26 01:00:41;;;;;;;31.15;27.75;;;;;;;21.05;68.25;100266.03;677261;29;963;-78
2023/08/26 01:01:26;;;;;;;31.65;28.25;;;;;;;21.12;68.25;100273.81;685329;28;1258;-78
2023/08/26 01:01:48;;;;;;;32.90;28.60;;;;;;;21.10;68.29;100274.72;686478;28;1375;-78
2023/08/26 01:02:09;;;;;;;33.90;28.55;;;;;;;21.09;68.45;100265.03;682053;28;1279;-78
2023/08/26 01:02:29;;;;;;;33.95;29.05;;;;;;;21.06;68.48;100267.75;676820;29;1844;-78
2023/08/26 01:02:50;;;;;;;37.17;28.80;;;;;;;21.05;68.36;100270.44;684920;28;1037;-78
2023/08/26 01:03:11;;;;;;;34.25;28.25;;;;;;;21.04;68.41;100263.41;685128;28;946;-77
2023/08/26 01:03:33;;;;;;;33.67;27.95;;;;;;;21.00;68.46;100252.00;680514;28;1032;-78
2023/08/26 01:03:53;;;;;;;34.83;29.10;;;;;;;20.99;68.61;100259.97;678543;29;993;-77
2023/08/26 01:04:16;;;;;;;38.10;30.30;;;;;;;21.08;68.39;100273.91;682493;28;1262;-77
2023/08/26 01:04:37;;;;;;;37.67;30.50;;;;;;;21.01;68.49;100258.19;682904;28;1148;-77
2023/08/26 01:04:58;;;;;;;35.03;29.60;;;;;;;21.04;68.43;100266.94;684911;28;945;-78
2023/08/26 01:05:19;;;;;;;32.58;29.00;;;;;;;21.09;68.38;100280.94;681799;29;1457;-78
2023/08/26 01:05:39;;;;;;;32.63;28.98;;;;;;;21.10;68.40;100276.53;678962;29;930;-78
2023/08/26 01:06:00;;;;;;;33.03;29.38;;;;;;;21.01;68.54;100253.72;681788;29;1433;-78
2023/08/26 01:06:21;;;;;;;33.40;29.80;;;;;;;21.02;68.43;100259.94;682218;29;1117;-78
2023/08/26 01:06:42;;;;;;;32.67;29.27;;;;;;;21.04;68.53;100269.59;685029;28;1109;-78
2023/08/26 01:07:04;;;;;;;32.30;29.00;;;;;;;21.03;68.46;100261.66;687066;28;1826;-78
2023/08/26 01:07:24;;;;;;;32.17;28.77;;;;;;;21.07;68.48;100264.19;690303;28;1399;-79
2023/08/26 01:07:45;;;;;;;33.22;29.80;;;;;;;21.00;68.55;100253.75;679693;29;1125;-78
2023/08/26 01:08:06;;;;;;;32.70;29.35;;;;;;;21.02;68.79;100255.47;681985;28;1320;-78
2023/08/26 01:08:27;;;;;;;32.80;29.30;;;;;;;21.02;68.58;100255.47;679525;29;1866;-78
2023/08/26 01:08:50;;;;;;;32.95;28.77;;;;;;;20.95;68.55;100249.44;683057;28;1237;-77
2023/08/26 01:09:11;;;;;;;34.17;30.10;;;;;;;20.95;68.59;100248.56;680260;29;1347;-78
2023/08/26 01:09:32;;;;;;;32.92;29.42;;;;;;;20.95;68.56;100249.44;687226;28;1397;-77
2023/08/26 01:09:53;;;;;;;32.50;29.10;;;;;;;20.96;68.68;100255.63;682443;29;1044;-77
2023/08/26 01:10:16;;;;;;;32.92;29.27;;;;;;;21.00;68.73;100262.59;686089;28;1384;-78
2023/08/26 01:10:54;;;;;;;35.50;29.33;;;;;;;21.04;68.61;100274.91;687571;28;1469;-78
2023/08/26 01:11:24;;;;;;;36.20;30.75;;;;;;;21.02;68.71;100271.38;689319;28;1463;-78
2023/08/26 01:12:12;;;;;;;33.47;29.45;;;;;;;20.95;68.69;100273.31;688954;28;1137;-77
2023/08/26 01:12:54;;;;;;;32.40;27.30;;;;;;;20.98;68.91;100277.69;687007;28;1552;-77
2023/08/26 01:13:18;;;;;;;32.35;28.95;;;;;;;20.87;68.80;100262.03;679591;28;1127;-77
2023/08/26 01:14:08;;;;;;;32.53;29.27;;;;;;;20.89;68.82;100262.00;685144;28;1504;-77
2023/08/26 01:14:37;;;;;;;34.57;29.47;;;;;;;20.89;68.76;100264.66;684210;28;1392;-77
2023/08/26 01:15:11;;;;;;;33.13;29.60;;;;;;;20.90;68.88;100271.69;679833;29;1630;-78
2023/08/26 01:15:35;;;;;;;32.10;28.75;;;;;;;20.87;68.90;100267.31;678185;28;1659;-78
2023/08/26 01:15:57;;;;;;;33.10;29.35;;;;;;;20.87;68.83;100264.69;682211;29;939;-77
2023/08/26 01:16:22;;;;;;;32.53;29.02;;;;;;;20.95;68.81;100277.75;685020;28;1032;-78
2023/08/26 01:16:43;;;;;;;33.58;29.38;;;;;;;20.93;68.96;100279.56;687737;28;1517;-79
2023/08/26 01:17:05;;;;;;;32.83;28.80;;;;;;;20.89;68.73;100278.75;687350;28;1075;-78
2023/08/26 01:17:26;;;;;;;33.60;29.27;;;;;;;20.90;68.99;100284.94;690251;28;1147;-77
2023/08/26 01:17:46;;;;;;;36.17;30.50;;;;;;;20.85;68.88;100269.16;680425;28;1554;-78
2023/08/26 01:18:09;;;;;;;41.20;32.03;;;;;;;20.88;69.07;100278.78;679540;29;1554;-78
2023/08/26 01:18:30;;;;;;;42.80;32.75;;;;;;;20.85;69.11;100284.19;689098;28;1417;-78
2023/08/26 01:18:51;;;;;;;40.05;31.88;;;;;;;20.80;69.08;100263.97;687689;28;1085;-78
2023/08/26 01:19:35;;;;;;;35.00;31.20;;;;;;;20.83;69.29;100276.25;682646;28;1290;-78
2023/08/26 01:19:59;;;;;;;33.22;29.67;;;;;;;20.90;69.26;100282.31;676828;28;1318;-78
2023/08/26 01:20:20;;;;;;;33.25;29.23;;;;;;;20.91;69.12;100273.44;682250;29;1148;-78
2023/08/26 01:20:42;;;;;;;36.38;29.60;;;;;;;21.00;69.10;100293.53;683812;28;1041;-78
2023/08/26 01:21:04;;;;;;;35.73;29.70;;;;;;;21.02;69.27;100297.06;679228;29;1136;-78
2023/08/26 01:21:34;;;;;;;36.33;30.35;;;;;;;20.92;69.25;100281.38;684605;28;1972;-78
2023/08/26 01:21:58;;;;;;;40.42;32.70;;;;;;;20.92;69.13;100281.38;679586;28;1053;-78
2023/08/26 01:22:24;;;;;;;40.33;32.88;;;;;;;20.99;69.20;100292.69;677871;29;1439;-78
2023/08/26 01:22:45;;;;;;;39.72;32.75;;;;;;;20.93;69.10;100287.53;681225;28;1117;-78
2023/08/26 01:23:32;;;;;;;38.13;32.60;;;;;;;20.91;69.08;100284.03;677128;29;2093;-78
2023/08/26 01:23:54;;;;;;;41.85;33.05;;;;;;;20.88;69.26;100278.78;679514;29;1187;-78
2023/08/26 01:24:15;;;;;;;41.40;32.28;;;;;;;20.92;69.25;100294.63;679661;29;1136;-78
2023/08/26 01:24:40;;;;;;;38.90;31.80;;;;;;;20.91;69.28;100295.50;682041;28;1537;-78
2023/08/26 01:25:02;;;;;;;35.80;31.98;;;;;;;20.88;69.43;100289.41;682990;28;1088;-78
2023/08/26 01:25:23;;;;;;;35.97;32.25;;;;;;;20.89;69.31;100280.56;676992;29;1029;-78
2023/08/26 01:25:44;;;;;;;36.20;32.50;;;;;;;20.90;69.21;100293.75;678703;29;1280;-78
2023/08/26 01:26:05;;;;;;;36.00;32.20;;;;;;;20.93;69.24;100298.13;681691;29;1142;-79
2023/08/26 01:26:26;;;;;;;36.30;32.03;;;;;;;20.94;69.29;100289.25;680891;29;1113;-78
2023/08/26 01:26:47;;;;;;;36.05;31.55;;;;;;;20.89;69.21;100285.88;680554;28;1653;-78
2023/08/26 01:27:08;;;;;;;37.47;32.13;;;;;;;20.93;69.14;100299.00;677148;29;947;-79
2023/08/26 01:27:29;;;;;;;36.70;32.80;;;;;;;20.92;69.25;100286.66;681731;29;1347;-78
2023/08/26 01:27:49;;;;;;;37.95;33.95;;;;;;;20.91;69.10;100284.91;687153;28;1460;-78
2023/08/26 01:28:10;;;;;;;36.95;33.20;;;;;;;20.90;69.07;100282.31;682340;28;1274;-77
2023/08/26 01:28:31;;;;;;;35.92;32.28;;;;;;;20.95;69.10;100293.66;679460;29;1478;-78
2023/08/26 01:28:52;;;;;;;35.08;30.70;;;;;;;20.89;69.09;100280.56;680022;29;1818;-78
2023/08/26 01:29:13;;;;;;;34.83;31.02;;;;;;;20.93;69.17;100287.53;685673;28;1028;-78
2023/08/26 01:29:35;;;;;;;38.15;32.28;;;;;;;20.96;69.03;100287.44;682606;29;1076;-78
2023/08/26 01:29:56;;;;;;;44.45;34.75;;;;;;;20.96;68.98;100287.44;682572;29;1662;-78
2023/08/26 01:30:18;;;;;;;42.95;33.65;;;;;;;20.90;68.97;100271.69;682515;29;1039;-78
2023/08/26 01:30:39;;;;;;;39.28;33.13;;;;;;;21.02;68.96;100292.59;680064;29;1049;-78
2023/08/26 01:31:04;;;;;;;35.88;32.00;;;;;;;20.94;68.89;100278.66;677776;29;1713;-78
2023/08/26 01:31:29;;;;;;;35.97;31.88;;;;;;;20.92;68.89;100269.88;684294;28;1491;-78
2023/08/26 01:31:59;;;;;;;37.80;31.42;;;;;;;21.03;68.89;100289.03;682461;28;1370;-78
2023/08/26 01:32:25;;;;;;;37.08;32.67;;;;;;;21.01;68.81;100284.72;685115;28;1781;-78
2023/08/26 01:33:20;;;;;;;36.85;32.83;;;;;;;21.01;69.01;100280.25;686632;28;1084;-78
2023/08/26 01:34:07;;;;;;;38.75;33.50;;;;;;;21.08;68.75;100296.88;685525;28;1110;-77
2023/08/26 01:34:32;;;;;;;36.88;32.90;;;;;;;21.02;68.77;100287.31;691983;28;1283;-78
2023/08/26 01:34:56;;;;;;;36.47;32.88;;;;;;;21.06;68.82;100296.94;682297;28;2485;-78
2023/08/26 01:35:33;;;;;;;38.15;34.25;;;;;;;21.08;68.71;100302.19;682443;29;1049;-78
2023/08/26 01:35:59;;;;;;;38.17;34.08;;;;;;;21.06;68.76;100301.38;682210;28;1041;-77
2023/08/26 01:36:25;;;;;;;38.72;34.72;;;;;;;21.07;68.70;100295.16;682435;29;1124;-78
2023/08/26 01:36:48;;;;;;;38.72;34.50;;;;;;;21.07;68.59;100295.16;685153;28;1112;-78
2023/08/26 01:37:11;;;;;;;37.67;33.58;;;;;;;20.99;68.51;100289.16;682656;29;1782;-77
2023/08/26 01:37:32;;;;;;;38.00;33.90;;;;;;;20.97;68.70;100281.25;685332;28;1143;-78
2023/08/26 01:37:54;;;;;;;38.20;34.22;;;;;;;21.06;68.50;100299.59;687866;28;1474;-77
2023/08/26 01:38:17;;;;;;;37.17;33.15;;;;;;;21.01;68.49;100296.16;688242;28;1017;-78
2023/08/26 01:38:40;;;;;;;37.13;33.13;;;;;;;21.10;68.38;100301.25;682694;29;1156;-77
2023/08/26 01:39:01;;;;;;;37.47;33.50;;;;;;;21.06;68.41;100301.38;685054;28;1753;-78
2023/08/26 01:39:22;;;;;;;38.72;34.60;;;;;;;21.04;68.44;100295.22;686600;28;1215;-77
2023/08/26 01:39:44;;;;;;;38.45;34.33;;;;;;;21.12;68.48;100308.31;685087;28;1291;-78
2023/08/26 01:40:08;;;;;;;40.25;35.10;;;;;;;21.11;68.47;100307.44;681338;28;1821;-78
2023/08/26 01:40:29;;;;;;;38.70;34.22;;;;;;;21.04;68.33;100304.06;682523;28;1706;-78
2023/08/26 01:40:56;;;;;;;37.78;33.50;;;;;;;21.04;68.46;100306.72;681950;28;1535;-78
2023/08/26 01:41:19;;;;;;;37.45;33.45;;;;;;;21.11;68.36;100307.44;684731;28;1910;-78
2023/08/26 01:41:45;;;;;;;39.65;34.88;;;;;;;21.03;68.39;100304.97;684520;28;1270;-77
2023/08/26 01:42:07;;;;;;;39.70;34.80;;;;;;;21.02;68.53;100299.72;683566;28;1762;-79
2023/08/26 01:42:29;;;;;;;42.05;34.50;;;;;;;20.99;68.49;100298.00;682365;29;1664;-79
2023/08/26 01:42:52;;;;;;;40.22;34.08;;;;;;;20.99;68.52;100298.00;679854;29;1975;-78
2023/08/26 01:43:14;;;;;;;42.22;34.55;;;;;;;20.98;68.65;100290.94;679230;29;1613;-77
2023/08/26 01:43:36;;;;;;;41.85;35.00;;;;;;;20.99;68.48;100292.69;685631;28;1752;-78
2023/08/26 01:43:58;;;;;;;42.88;35.53;;;;;;;20.95;68.55;100291.88;685369;28;1374;-77
2023/08/26 01:44:19;;;;;;;40.88;35.15;;;;;;;20.99;68.62;100303.31;686196;28;1064;-78
2023/08/26 01:44:41;;;;;;;40.58;35.80;;;;;;;21.05;68.52;100308.47;686671;28;1099;-79
2023/08/26 01:45:03;;;;;;;41.10;35.50;;;;;;;20.98;68.61;100296.25;687952;28;1448;-77
2023/08/26 01:45:24;;;;;;;39.22;34.97;;;;;;;21.01;68.63;100297.97;682638;28;1332;-77
2023/08/26 01:45:45;;;;;;;39.50;34.90;;;;;;;21.04;68.65;100300.53;683254;28;1166;-79